sensor_id;sensor_type;location;lat;lon;timestamp;pressure;altitude;pressure_sealevel;temperature;humidity
35716;BME280;21840;44.920;8.616;2023-03-14T00:00:22;99478.22;;;17.18;52.16
35716;BME280;21840;44.920;8.616;2023-03-14T00:02:56;99480.44;;;17.14;52.16
35716;BME280;21840;44.920;8.616;2023-03-14T00:05:22;99465.78;;;17.25;51.97
35716;BME280;21840;44.920;8.616;2023-03-14T00:07:47;99480.28;;;17.22;51.89
35716;BME280;21840;44.920;8.616;2023-03-14T00:10:14;99474.75;;;17.17;52.01
35716;BME280;21840;44.920;8.616;2023-03-14T00:12:41;99472.91;;;17.18;51.96
35716;BME280;21840;44.920;8.616;2023-03-14T00:15:07;99451.94;;;17.36;51.54
35716;BME280;21840;44.920;8.616;2023-03-14T00:17:34;99433.53;;;17.28;51.55
35716;BME280;21840;44.920;8.616;2023-03-14T00:19:59;99436.41;;;17.33;51.47
35716;BME280;21840;44.920;8.616;2023-03-14T00:22:30;99428.25;;;17.35;51.41
35716;BME280;21840;44.920;8.616;2023-03-14T00:24:56;99426.22;;;17.30;51.63
35716;BME280;21840;44.920;8.616;2023-03-14T00:27:22;99406.78;;;17.16;51.86
35716;BME280;21840;44.920;8.616;2023-03-14T00:29:47;99400.84;;;17.14;52.17
35716;BME280;21840;44.920;8.616;2023-03-14T00:32:13;99398.34;;;16.86;52.90
35716;BME280;21840;44.920;8.616;2023-03-14T00:34:39;99397.97;;;17.09;52.49
35716;BME280;21840;44.920;8.616;2023-03-14T00:37:05;99386.16;;;17.12;52.53
35716;BME280;21840;44.920;8.616;2023-03-14T00:39:31;99389.19;;;17.02;52.80
35716;BME280;21840;44.920;8.616;2023-03-14T00:41:56;99382.44;;;16.03;55.41
35716;BME280;21840;44.920;8.616;2023-03-14T00:44:22;99362.97;;;16.17;55.52
35716;BME280;21840;44.920;8.616;2023-03-14T00:46:47;99365.91;;;16.36;55.02
35716;BME280;21840;44.920;8.616;2023-03-14T00:49:12;99352.28;;;16.04;55.94
35716;BME280;21840;44.920;8.616;2023-03-14T00:51:38;99355.25;;;15.88;56.53
35716;BME280;21840;44.920;8.616;2023-03-14T00:54:03;99347.13;;;16.31;55.67
35716;BME280;21840;44.920;8.616;2023-03-14T00:56:29;99350.84;;;16.43;55.22
35716;BME280;21840;44.920;8.616;2023-03-14T00:58:56;99354.56;;;16.14;55.84
35716;BME280;21840;44.920;8.616;2023-03-14T01:01:22;99340.75;;;16.18;55.57
35716;BME280;21840;44.920;8.616;2023-03-14T01:03:51;99339.28;;;16.09;55.80
35716;BME280;21840;44.920;8.616;2023-03-14T01:06:28;99333.72;;;15.98;56.21
35716;BME280;21840;44.920;8.616;2023-03-14T01:08:54;99319.09;;;16.08;55.73
35716;BME280;21840;44.920;8.616;2023-03-14T01:11:25;99305.25;;;16.06;55.96
35716;BME280;21840;44.920;8.616;2023-03-14T01:13:52;99297.28;;;16.06;55.90
35716;BME280;21840;44.920;8.616;2023-03-14T01:16:19;99296.13;;;16.15;55.54
35716;BME280;21840;44.920;8.616;2023-03-14T01:18:45;99298.16;;;16.13;55.75
35716;BME280;21840;44.920;8.616;2023-03-14T01:21:19;99315.13;;;16.26;55.61
35716;BME280;21840;44.920;8.616;2023-03-14T01:23:45;99289.69;;;16.38;55.40
35716;BME280;21840;44.920;8.616;2023-03-14T01:26:13;99262.91;;;16.20;55.42
35716;BME280;21840;44.920;8.616;2023-03-14T01:28:39;99268.06;;;16.28;55.39
35716;BME280;21840;44.920;8.616;2023-03-14T01:31:06;99251.75;;;16.31;55.35
35716;BME280;21840;44.920;8.616;2023-03-14T01:33:32;99248.13;;;16.45;55.07
35716;BME280;21840;44.920;8.616;2023-03-14T01:35:58;99234.31;;;16.63;54.55
35716;BME280;21840;44.920;8.616;2023-03-14T01:38:24;99213.72;;;16.65;54.60
35716;BME280;21840;44.920;8.616;2023-03-14T01:40:50;99194.34;;;16.71;54.60
35716;BME280;21840;44.920;8.616;2023-03-14T01:43:18;99174.16;;;16.50;55.02
35716;BME280;21840;44.920;8.616;2023-03-14T01:48:38;99109.31;;;16.46;55.05
35716;BME280;21840;44.920;8.616;2023-03-14T01:51:11;99116.44;;;16.39;55.38
35716;BME280;21840;44.920;8.616;2023-03-14T01:53:38;99087.91;;;16.54;55.04
35716;BME280;21840;44.920;8.616;2023-03-14T01:56:06;99124.81;;;16.43;55.17
35716;BME280;21840;44.920;8.616;2023-03-14T01:58:32;99133.56;;;16.76;54.68
35716;BME280;21840;44.920;8.616;2023-03-14T02:01:01;99154.75;;;16.50;55.15
35716;BME280;21840;44.920;8.616;2023-03-14T02:03:29;99163.53;;;16.50;55.15
35716;BME280;21840;44.920;8.616;2023-03-14T02:05:59;99189.25;;;15.82;56.80
35716;BME280;21840;44.920;8.616;2023-03-14T02:08:29;99196.63;;;16.00;56.86
35716;BME280;21840;44.920;8.616;2023-03-14T02:10:59;99186.69;;;15.67;57.39
35716;BME280;21840;44.920;8.616;2023-03-14T02:13:43;99150.63;;;16.07;56.79
35716;BME280;21840;44.920;8.616;2023-03-14T02:16:15;99156.97;;;16.26;56.22
35716;BME280;21840;44.920;8.616;2023-03-14T02:19:14;99165.25;;;15.48;58.29
35716;BME280;21840;44.920;8.616;2023-03-14T02:22:09;99176.84;;;15.89;57.45
35716;BME280;21840;44.920;8.616;2023-03-14T02:25:41;99190.63;;;15.71;57.75
35716;BME280;21840;44.920;8.616;2023-03-14T02:27:47;99190.31;;;15.52;58.61
35716;BME280;21840;44.920;8.616;2023-03-14T02:30:16;99196.78;;;15.50;58.89
35716;BME280;21840;44.920;8.616;2023-03-14T02:32:46;99190.00;;;15.34;58.84
35716;BME280;21840;44.920;8.616;2023-03-14T02:35:17;99195.53;;;15.11;59.62
35716;BME280;21840;44.920;8.616;2023-03-14T02:37:50;99178.34;;;14.94;60.17
35716;BME280;21840;44.920;8.616;2023-03-14T02:40:19;99180.25;;;15.06;60.06
35716;BME280;21840;44.920;8.616;2023-03-14T02:42:46;99160.28;;;15.32;59.34
35716;BME280;21840;44.920;8.616;2023-03-14T02:47:47;99172.03;;;14.95;59.58
35716;BME280;21840;44.920;8.616;2023-03-14T02:50:17;99181.63;;;14.74;60.01
35716;BME280;21840;44.920;8.616;2023-03-14T02:52:45;99184.22;;;14.67;59.81
35716;BME280;21840;44.920;8.616;2023-03-14T02:55:11;99183.00;;;14.70;59.87
35716;BME280;21840;44.920;8.616;2023-03-14T02:57:40;99190.13;;;14.91;59.62
35716;BME280;21840;44.920;8.616;2023-03-14T03:00:06;99177.72;;;14.70;59.72
35716;BME280;21840;44.920;8.616;2023-03-14T03:02:35;99185.88;;;14.69;60.08
35716;BME280;21840;44.920;8.616;2023-03-14T03:05:01;99177.66;;;14.85;59.69
35716;BME280;21840;44.920;8.616;2023-03-14T03:07:26;99179.53;;;15.19;58.65
35716;BME280;21840;44.920;8.616;2023-03-14T03:09:54;99177.03;;;15.11;58.63
35716;BME280;21840;44.920;8.616;2023-03-14T03:12:20;99170.56;;;14.64;60.28
35716;BME280;21840;44.920;8.616;2023-03-14T03:14:45;99166.38;;;14.98;59.41
35716;BME280;21840;44.920;8.616;2023-03-14T03:17:10;99145.22;;;14.98;59.37
35716;BME280;21840;44.920;8.616;2023-03-14T03:19:37;99138.88;;;14.92;59.15
35716;BME280;21840;44.920;8.616;2023-03-14T03:22:03;99143.25;;;14.78;59.70
35716;BME280;21840;44.920;8.616;2023-03-14T03:24:28;99126.22;;;14.59;60.75
35716;BME280;21840;44.920;8.616;2023-03-14T03:26:54;99130.53;;;14.60;60.99
35716;BME280;21840;44.920;8.616;2023-03-14T03:29:19;99122.69;;;14.74;60.69
35716;BME280;21840;44.920;8.616;2023-03-14T03:31:45;99131.19;;;14.69;61.12
35716;BME280;21840;44.920;8.616;2023-03-14T03:34:12;99181.25;;;14.77;60.97
35716;BME280;21840;44.920;8.616;2023-03-14T03:36:39;99237.69;;;14.70;61.15
35716;BME280;21840;44.920;8.616;2023-03-14T03:39:06;99307.16;;;14.85;61.22
35716;BME280;21840;44.920;8.616;2023-03-14T03:41:32;99360.94;;;14.56;62.69
35716;BME280;21840;44.920;8.616;2023-03-14T03:43:57;99374.25;;;14.18;65.30
35716;BME280;21840;44.920;8.616;2023-03-14T03:46:23;99390.03;;;13.73;66.82
35716;BME280;21840;44.920;8.616;2023-03-14T03:48:59;99357.75;;;14.16;65.55
35716;BME280;21840;44.920;8.616;2023-03-14T03:51:26;99356.94;;;14.00;64.67
35716;BME280;21840;44.920;8.616;2023-03-14T03:53:52;99321.97;;;14.28;63.92
35716;BME280;21840;44.920;8.616;2023-03-14T03:56:24;99286.56;;;14.08;63.36
35716;BME280;21840;44.920;8.616;2023-03-14T03:58:50;99268.91;;;14.44;62.19
35716;BME280;21840;44.920;8.616;2023-03-14T04:01:16;99264.81;;;14.20;62.22
35716;BME280;21840;44.920;8.616;2023-03-14T04:03:45;99257.28;;;14.39;61.76
35716;BME280;21840;44.920;8.616;2023-03-14T04:06:12;99264.81;;;14.42;61.60
35716;BME280;21840;44.920;8.616;2023-03-14T04:08:39;99267.31;;;14.29;61.68
35716;BME280;21840;44.920;8.616;2023-03-14T04:11:07;99273.63;;;14.64;61.14
35716;BME280;21840;44.920;8.616;2023-03-14T04:13:57;99301.09;;;14.33;62.01
35716;BME280;21840;44.920;8.616;2023-03-14T04:16:24;99295.72;;;14.41;61.28
35716;BME280;21840;44.920;8.616;2023-03-14T04:18:54;99290.94;;;14.52;61.52
35716;BME280;21840;44.920;8.616;2023-03-14T04:21:21;99285.84;;;14.86;60.74
35716;BME280;21840;44.920;8.616;2023-03-14T04:23:52;99273.28;;;14.16;61.94
35716;BME280;21840;44.920;8.616;2023-03-14T04:26:18;99261.44;;;13.97;61.98
35716;BME280;21840;44.920;8.616;2023-03-14T04:28:44;99245.69;;;14.55;61.32
35716;BME280;21840;44.920;8.616;2023-03-14T04:31:12;99223.03;;;14.88;60.32
35716;BME280;21840;44.920;8.616;2023-03-14T04:33:38;99213.88;;;15.13;59.64
35716;BME280;21840;44.920;8.616;2023-03-14T04:36:05;99200.09;;;15.24;59.31
35716;BME280;21840;44.920;8.616;2023-03-14T04:38:31;99195.53;;;15.11;59.43
35716;BME280;21840;44.920;8.616;2023-03-14T04:40:58;99214.13;;;15.24;59.49
35716;BME280;21840;44.920;8.616;2023-03-14T04:43:29;99203.53;;;15.18;59.29
35716;BME280;21840;44.920;8.616;2023-03-14T04:46:01;99173.72;;;15.30;58.91
35716;BME280;21840;44.920;8.616;2023-03-14T04:48:27;99201.72;;;15.25;58.44
35716;BME280;21840;44.920;8.616;2023-03-14T04:50:54;99215.44;;;15.35;58.53
35716;BME280;21840;44.920;8.616;2023-03-14T04:53:19;99210.97;;;15.36;58.46
35716;BME280;21840;44.920;8.616;2023-03-14T04:55:55;99193.66;;;15.33;58.25
35716;BME280;21840;44.920;8.616;2023-03-14T04:58:22;99172.97;;;15.50;57.91
35716;BME280;21840;44.920;8.616;2023-03-14T05:00:49;99161.94;;;15.40;58.28
35716;BME280;21840;44.920;8.616;2023-03-14T05:03:36;99147.50;;;15.42;57.95
35716;BME280;21840;44.920;8.616;2023-03-14T05:06:12;99158.34;;;15.54;57.54
35716;BME280;21840;44.920;8.616;2023-03-14T05:08:56;99161.25;;;15.24;58.59
35716;BME280;21840;44.920;8.616;2023-03-14T05:11:40;99176.13;;;15.25;58.33
35716;BME280;21840;44.920;8.616;2023-03-14T05:14:29;99184.91;;;15.32;57.94
35716;BME280;21840;44.920;8.616;2023-03-14T05:17:17;99193.38;;;15.21;58.17
35716;BME280;21840;44.920;8.616;2023-03-14T05:20:03;99184.16;;;15.45;57.59
35716;BME280;21840;44.920;8.616;2023-03-14T05:22:51;99173.22;;;15.55;57.11
35716;BME280;21840;44.920;8.616;2023-03-14T05:25:36;99158.41;;;15.67;57.11
35716;BME280;21840;44.920;8.616;2023-03-14T05:28:23;99158.69;;;15.79;56.82
35716;BME280;21840;44.920;8.616;2023-03-14T05:31:09;99158.41;;;15.67;56.64
35716;BME280;21840;44.920;8.616;2023-03-14T05:33:46;99135.41;;;15.68;56.53
35716;BME280;21840;44.920;8.616;2023-03-14T05:36:32;99139.19;;;15.45;57.07
35716;BME280;21840;44.920;8.616;2023-03-14T05:39:11;99166.63;;;15.38;57.07
35716;BME280;21840;44.920;8.616;2023-03-14T05:41:39;99180.56;;;15.60;56.44
35716;BME280;21840;44.920;8.616;2023-03-14T05:44:23;99172.44;;;15.26;57.21
35716;BME280;21840;44.920;8.616;2023-03-14T05:46:51;99176.66;;;15.49;57.15
35716;BME280;21840;44.920;8.616;2023-03-14T05:49:30;99182.56;;;15.51;56.82
35716;BME280;21840;44.920;8.616;2023-03-14T05:52:19;99179.25;;;15.42;57.03
35716;BME280;21840;44.920;8.616;2023-03-14T05:54:51;99177.09;;;15.52;57.10
35716;BME280;21840;44.920;8.616;2023-03-14T05:57:28;99177.31;;;15.64;56.90
35716;BME280;21840;44.920;8.616;2023-03-14T06:00:12;99173.63;;;15.59;57.01
35716;BME280;21840;44.920;8.616;2023-03-14T06:02:57;99165.06;;;15.57;57.05
35716;BME280;21840;44.920;8.616;2023-03-14T06:05:28;99161.63;;;15.56;56.73
35716;BME280;21840;44.920;8.616;2023-03-14T06:07:58;99153.66;;;15.49;57.07
35716;BME280;21840;44.920;8.616;2023-03-14T06:10:26;99156.22;;;15.36;57.36
35716;BME280;21840;44.920;8.616;2023-03-14T06:12:51;99159.06;;;15.35;57.08
35716;BME280;21840;44.920;8.616;2023-03-14T06:15:17;99148.75;;;15.46;56.94
35716;BME280;21840;44.920;8.616;2023-03-14T06:17:46;99153.94;;;15.68;56.36
35716;BME280;21840;44.920;8.616;2023-03-14T06:20:12;99155.13;;;15.59;56.40
35716;BME280;21840;44.920;8.616;2023-03-14T06:22:39;99153.97;;;15.33;57.28
35716;BME280;21840;44.920;8.616;2023-03-14T06:25:06;99154.91;;;15.53;56.81
35716;BME280;21840;44.920;8.616;2023-03-14T06:27:33;99155.06;;;15.93;56.21
35716;BME280;21840;44.920;8.616;2023-03-14T06:29:58;99166.25;;;15.89;56.29
35716;BME280;21840;44.920;8.616;2023-03-14T06:32:25;99168.69;;;15.84;56.56
35716;BME280;21840;44.920;8.616;2023-03-14T06:34:53;99160.75;;;15.84;56.47
35716;BME280;21840;44.920;8.616;2023-03-14T06:37:19;99149.34;;;15.90;56.14
35716;BME280;21840;44.920;8.616;2023-03-14T06:39:45;99155.41;;;15.77;56.36
35716;BME280;21840;44.920;8.616;2023-03-14T06:42:21;99143.28;;;16.09;55.77
35716;BME280;21840;44.920;8.616;2023-03-14T06:44:47;99151.78;;;15.85;55.94
35716;BME280;21840;44.920;8.616;2023-03-14T06:47:13;99153.03;;;15.89;56.09
35716;BME280;21840;44.920;8.616;2023-03-14T06:49:42;99143.31;;;16.03;55.82
35716;BME280;21840;44.920;8.616;2023-03-14T06:52:08;99139.03;;;16.08;55.36
35716;BME280;21840;44.920;8.616;2023-03-14T06:54:34;99151.81;;;15.91;55.87
35716;BME280;21840;44.920;8.616;2023-03-14T06:56:59;99153.00;;;15.76;56.44
35716;BME280;21840;44.920;8.616;2023-03-14T06:59:25;99147.31;;;15.85;56.29
35716;BME280;21840;44.920;8.616;2023-03-14T07:01:50;99142.91;;;16.19;55.64
35716;BME280;21840;44.920;8.616;2023-03-14T07:04:17;99142.06;;;16.12;55.68
35716;BME280;21840;44.920;8.616;2023-03-14T07:06:46;99148.66;;;16.36;55.01
35716;BME280;21840;44.920;8.616;2023-03-14T07:09:13;99148.44;;;16.31;55.30
35716;BME280;21840;44.920;8.616;2023-03-14T07:11:43;99144.97;;;16.30;54.79
35716;BME280;21840;44.920;8.616;2023-03-14T07:14:09;99153.94;;;16.36;54.54
35716;BME280;21840;44.920;8.616;2023-03-14T07:16:35;99145.47;;;15.86;55.15
35716;BME280;21840;44.920;8.616;2023-03-14T07:19:01;99142.41;;;15.76;55.12
35716;BME280;21840;44.920;8.616;2023-03-14T07:21:27;99153.50;;;15.64;55.52
35716;BME280;21840;44.920;8.616;2023-03-14T07:23:53;99142.91;;;15.64;55.81
35716;BME280;21840;44.920;8.616;2023-03-14T07:26:19;99149.91;;;15.72;55.98
35716;BME280;21840;44.920;8.616;2023-03-14T07:28:49;99144.88;;;15.84;55.71
35716;BME280;21840;44.920;8.616;2023-03-14T07:31:17;99152.88;;;15.56;56.13
35716;BME280;21840;44.920;8.616;2023-03-14T07:33:43;99148.38;;;15.56;55.31
35716;BME280;21840;44.920;8.616;2023-03-14T07:36:09;99155.78;;;15.26;55.69
35716;BME280;21840;44.920;8.616;2023-03-14T07:38:34;99140.19;;;15.38;55.74
35716;BME280;21840;44.920;8.616;2023-03-14T07:41:09;99154.66;;;15.48;55.53
35716;BME280;21840;44.920;8.616;2023-03-14T07:43:42;99163.88;;;15.59;53.83
35716;BME280;21840;44.920;8.616;2023-03-14T07:46:07;99170.41;;;15.63;54.32
35716;BME280;21840;44.920;8.616;2023-03-14T07:48:33;99189.44;;;15.10;54.64
35716;BME280;21840;44.920;8.616;2023-03-14T07:50:59;99178.72;;;15.19;55.47
35716;BME280;21840;44.920;8.616;2023-03-14T07:53:25;99177.31;;;15.58;54.86
35716;BME280;21840;44.920;8.616;2023-03-14T07:55:51;99177.84;;;15.81;54.22
35716;BME280;21840;44.920;8.616;2023-03-14T07:58:17;99180.31;;;15.83;53.11
35716;BME280;21840;44.920;8.616;2023-03-14T08:00:43;99183.97;;;15.88;52.81
35716;BME280;21840;44.920;8.616;2023-03-14T08:03:09;99189.97;;;16.10;52.92
35716;BME280;21840;44.920;8.616;2023-03-14T08:05:35;99193.31;;;15.78;52.26
35716;BME280;21840;44.920;8.616;2023-03-14T08:08:01;99191.19;;;15.66;52.06
35716;BME280;21840;44.920;8.616;2023-03-14T08:10:27;99193.97;;;15.51;51.87
35716;BME280;21840;44.920;8.616;2023-03-14T08:12:54;99184.38;;;15.85;51.91
35716;BME280;21840;44.920;8.616;2023-03-14T08:15:21;99171.84;;;16.27;50.96
35716;BME280;21840;44.920;8.616;2023-03-14T08:17:46;99180.66;;;16.54;50.68
35716;BME280;21840;44.920;8.616;2023-03-14T08:20:18;99176.41;;;16.73;50.59
35716;BME280;21840;44.920;8.616;2023-03-14T08:22:44;99170.09;;;16.94;50.19
35716;BME280;21840;44.920;8.616;2023-03-14T08:25:10;99170.47;;;17.11;49.53
35716;BME280;21840;44.920;8.616;2023-03-14T08:27:46;99161.25;;;17.27;49.15
35716;BME280;21840;44.920;8.616;2023-03-14T08:30:14;99159.00;;;17.37;48.74
35716;BME280;21840;44.920;8.616;2023-03-14T08:32:40;99159.38;;;17.48;48.88
35716;BME280;21840;44.920;8.616;2023-03-14T08:35:06;99156.38;;;17.31;48.86
35716;BME280;21840;44.920;8.616;2023-03-14T08:37:32;99147.09;;;17.53;48.50
35716;BME280;21840;44.920;8.616;2023-03-14T08:39:58;99148.47;;;17.69;48.21
35716;BME280;21840;44.920;8.616;2023-03-14T08:42:23;99156.28;;;17.57;48.34
35716;BME280;21840;44.920;8.616;2023-03-14T08:44:51;99158.72;;;17.59;48.93
35716;BME280;21840;44.920;8.616;2023-03-14T08:47:16;99165.59;;;17.73;47.83
35716;BME280;21840;44.920;8.616;2023-03-14T08:49:42;99159.88;;;17.69;47.23
35716;BME280;21840;44.920;8.616;2023-03-14T08:52:07;99158.03;;;17.83;47.78
35716;BME280;21840;44.920;8.616;2023-03-14T08:54:33;99151.28;;;17.87;47.91
35716;BME280;21840;44.920;8.616;2023-03-14T08:56:58;99163.97;;;17.85;47.80
35716;BME280;21840;44.920;8.616;2023-03-14T08:59:24;99153.34;;;17.85;47.90
35716;BME280;21840;44.920;8.616;2023-03-14T09:01:49;99158.41;;;17.94;47.80
35716;BME280;21840;44.920;8.616;2023-03-14T09:04:15;99160.75;;;18.15;47.78
35716;BME280;21840;44.920;8.616;2023-03-14T09:06:40;99162.75;;;18.20;47.44
35716;BME280;21840;44.920;8.616;2023-03-14T09:09:06;99165.81;;;18.17;46.62
35716;BME280;21840;44.920;8.616;2023-03-14T09:11:32;99180.16;;;18.16;46.97
35716;BME280;21840;44.920;8.616;2023-03-14T09:13:57;99177.97;;;18.38;46.88
35716;BME280;21840;44.920;8.616;2023-03-14T09:16:23;99175.16;;;18.32;46.16
35716;BME280;21840;44.920;8.616;2023-03-14T09:18:49;99168.16;;;18.63;45.20
35716;BME280;21840;44.920;8.616;2023-03-14T09:21:14;99172.09;;;18.86;45.14
35716;BME280;21840;44.920;8.616;2023-03-14T09:23:41;99177.25;;;18.81;45.30
35716;BME280;21840;44.920;8.616;2023-03-14T09:26:06;99179.19;;;18.92;45.61
35716;BME280;21840;44.920;8.616;2023-03-14T09:28:32;99175.56;;;19.11;45.38
35716;BME280;21840;44.920;8.616;2023-03-14T09:30:57;99166.84;;;19.41;44.97
35716;BME280;21840;44.920;8.616;2023-03-14T09:33:23;99175.88;;;19.58;44.62
35716;BME280;21840;44.920;8.616;2023-03-14T09:35:49;99167.47;;;19.80;44.15
35716;BME280;21840;44.920;8.616;2023-03-14T09:38:15;99169.84;;;19.70;44.39
35716;BME280;21840;44.920;8.616;2023-03-14T09:40:41;99164.47;;;19.88;43.94
35716;BME280;21840;44.920;8.616;2023-03-14T09:43:14;99169.84;;;19.70;43.34
35716;BME280;21840;44.920;8.616;2023-03-14T09:45:41;99165.16;;;19.83;43.96
35716;BME280;21840;44.920;8.616;2023-03-14T09:48:24;99169.22;;;19.86;43.43
35716;BME280;21840;44.920;8.616;2023-03-14T09:50:54;99164.22;;;19.78;43.78
35716;BME280;21840;44.920;8.616;2023-03-14T09:53:42;99160.88;;;19.46;44.54
35716;BME280;21840;44.920;8.616;2023-03-14T09:56:18;99160.34;;;19.74;44.57
35716;BME280;21840;44.920;8.616;2023-03-14T09:58:50;99163.31;;;19.66;44.75
35716;BME280;21840;44.920;8.616;2023-03-14T10:01:17;99162.63;;;19.89;43.58
35716;BME280;21840;44.920;8.616;2023-03-14T10:03:46;99161.63;;;20.01;42.92
35716;BME280;21840;44.920;8.616;2023-03-14T10:06:13;99157.28;;;20.19;42.45
35716;BME280;21840;44.920;8.616;2023-03-14T10:08:42;99143.41;;;20.29;41.84
35716;BME280;21840;44.920;8.616;2023-03-14T10:11:17;99136.03;;;20.42;41.34
35716;BME280;21840;44.920;8.616;2023-03-14T10:14:07;99147.25;;;20.33;41.18
35716;BME280;21840;44.920;8.616;2023-03-14T10:16:44;99147.91;;;20.58;40.86
35716;BME280;21840;44.920;8.616;2023-03-14T10:19:11;99149.91;;;20.86;40.37
35716;BME280;21840;44.920;8.616;2023-03-14T10:21:50;99152.13;;;20.89;40.14
35716;BME280;21840;44.920;8.616;2023-03-14T10:26:49;99151.75;;;21.45;39.54
35716;BME280;21840;44.920;8.616;2023-03-14T10:29:17;99153.94;;;21.48;39.19
35716;BME280;21840;44.920;8.616;2023-03-14T10:31:52;99162.41;;;21.21;39.52
35716;BME280;21840;44.920;8.616;2023-03-14T10:36:59;99160.69;;;21.39;38.91
35716;BME280;21840;44.920;8.616;2023-03-14T10:39:37;99158.59;;;21.41;38.45
35716;BME280;21840;44.920;8.616;2023-03-14T10:42:19;99147.09;;;21.40;38.65
35716;BME280;21840;44.920;8.616;2023-03-14T10:44:46;99160.31;;;21.35;38.71
35716;BME280;21840;44.920;8.616;2023-03-14T10:47:19;99152.44;;;21.28;39.11
35716;BME280;21840;44.920;8.616;2023-03-14T10:49:46;99153.31;;;21.69;38.65
35716;BME280;21840;44.920;8.616;2023-03-14T10:52:23;99147.66;;;21.54;38.96
35716;BME280;21840;44.920;8.616;2023-03-14T10:55:03;99151.19;;;21.71;38.99
35716;BME280;21840;44.920;8.616;2023-03-14T10:57:29;99156.91;;;21.63;38.68
35716;BME280;21840;44.920;8.616;2023-03-14T10:59:56;99154.63;;;21.55;38.82
35716;BME280;21840;44.920;8.616;2023-03-14T11:07:46;99162.19;;;21.11;39.53
35716;BME280;21840;44.920;8.616;2023-03-14T11:15:41;99162.06;;;20.59;40.61
35716;BME280;21840;44.920;8.616;2023-03-14T11:21:13;99154.16;;;20.52;40.83
35716;BME280;21840;44.920;8.616;2023-03-14T11:24:08;99151.63;;;20.57;40.94
35716;BME280;21840;44.920;8.616;2023-03-14T11:32:02;99138.06;;;21.18;40.08
35716;BME280;21840;44.920;8.616;2023-03-14T11:34:50;99143.38;;;21.41;38.69
35716;BME280;21840;44.920;8.616;2023-03-14T11:37:23;99133.97;;;21.39;39.17
35716;BME280;21840;44.920;8.616;2023-03-14T11:40:05;99129.19;;;21.52;39.08
35716;BME280;21840;44.920;8.616;2023-03-14T11:42:32;99129.41;;;21.63;38.69
35716;BME280;21840;44.920;8.616;2023-03-14T11:44:58;99131.16;;;21.57;39.38
35716;BME280;21840;44.920;8.616;2023-03-14T11:47:41;99127.06;;;21.95;38.56
35716;BME280;21840;44.920;8.616;2023-03-14T11:50:37;99119.53;;;22.21;38.61
35716;BME280;21840;44.920;8.616;2023-03-14T11:53:09;99113.47;;;22.13;38.97
35716;BME280;21840;44.920;8.616;2023-03-14T11:55:39;99111.59;;;21.97;39.04
35716;BME280;21840;44.920;8.616;2023-03-14T11:58:19;99117.53;;;21.99;39.21
35716;BME280;21840;44.920;8.616;2023-03-14T12:00:47;99116.09;;;21.80;39.92
35716;BME280;21840;44.920;8.616;2023-03-14T12:08:47;99105.91;;;21.24;39.56
35716;BME280;21840;44.920;8.616;2023-03-14T12:13:57;99096.69;;;21.44;39.76
35716;BME280;21840;44.920;8.616;2023-03-14T12:18:50;99080.91;;;21.71;38.57
35716;BME280;21840;44.920;8.616;2023-03-14T12:21:17;99073.69;;;22.00;37.89
35716;BME280;21840;44.920;8.616;2023-03-14T12:23:45;99075.97;;;22.08;37.83
35716;BME280;21840;44.920;8.616;2023-03-14T12:28:49;99078.91;;;21.78;38.16
35716;BME280;21840;44.920;8.616;2023-03-14T12:42:05;99064.97;;;22.55;36.87
35716;BME280;21840;44.920;8.616;2023-03-14T12:49:54;99057.13;;;22.32;37.63
35716;BME280;21840;44.920;8.616;2023-03-14T12:52:35;99050.31;;;22.41;37.14
35716;BME280;21840;44.920;8.616;2023-03-14T12:55:25;99050.78;;;22.55;37.18
35716;BME280;21840;44.920;8.616;2023-03-14T13:00:32;99029.50;;;23.26;35.97
35716;BME280;21840;44.920;8.616;2023-03-14T13:03:12;99030.94;;;23.34;35.42
35716;BME280;21840;44.920;8.616;2023-03-14T13:05:52;99014.97;;;23.71;36.02
35716;BME280;21840;44.920;8.616;2023-03-14T13:08:36;99022.88;;;23.56;36.79
35716;BME280;21840;44.920;8.616;2023-03-14T13:11:09;99015.78;;;23.17;37.17
35716;BME280;21840;44.920;8.616;2023-03-14T13:13:37;99016.13;;;22.82;37.63
35716;BME280;21840;44.920;8.616;2023-03-14T13:16:06;99009.13;;;22.81;37.87
35716;BME280;21840;44.920;8.616;2023-03-14T13:18:40;99007.13;;;22.49;38.59
35716;BME280;21840;44.920;8.616;2023-03-14T13:21:17;98998.22;;;22.27;38.82
35716;BME280;21840;44.920;8.616;2023-03-14T13:24:03;98990.72;;;21.78;39.62
35716;BME280;21840;44.920;8.616;2023-03-14T13:26:40;99002.94;;;21.57;39.85
35716;BME280;21840;44.920;8.616;2023-03-14T13:29:16;99004.50;;;21.01;40.93
35716;BME280;21840;44.920;8.616;2023-03-14T13:31:46;99003.56;;;21.07;41.17
35716;BME280;21840;44.920;8.616;2023-03-14T13:34:13;99002.72;;;21.18;40.81
35716;BME280;21840;44.920;8.616;2023-03-14T13:36:38;99000.56;;;20.92;41.51
35716;BME280;21840;44.920;8.616;2023-03-14T13:39:19;98997.06;;;21.03;41.04
35716;BME280;21840;44.920;8.616;2023-03-14T13:41:45;98991.63;;;20.98;41.29
35716;BME280;21840;44.920;8.616;2023-03-14T13:44:29;98996.22;;;21.14;41.09
35716;BME280;21840;44.920;8.616;2023-03-14T13:47:00;98991.50;;;21.33;40.80
35716;BME280;21840;44.920;8.616;2023-03-14T13:49:28;98996.94;;;21.50;40.35
35716;BME280;21840;44.920;8.616;2023-03-14T13:51:56;99002.91;;;21.00;41.24
35716;BME280;21840;44.920;8.616;2023-03-14T13:54:22;99006.59;;;20.99;41.08
35716;BME280;21840;44.920;8.616;2023-03-14T13:56:59;99015.94;;;21.25;41.06
35716;BME280;21840;44.920;8.616;2023-03-14T13:59:26;99016.06;;;21.18;41.38
35716;BME280;21840;44.920;8.616;2023-03-14T14:01:54;99019.06;;;20.70;42.17
35716;BME280;21840;44.920;8.616;2023-03-14T14:04:24;99021.47;;;20.95;41.67
35716;BME280;21840;44.920;8.616;2023-03-14T14:06:56;99013.41;;;21.06;41.63
35716;BME280;21840;44.920;8.616;2023-03-14T14:09:25;99017.53;;;20.97;41.76
35716;BME280;21840;44.920;8.616;2023-03-14T14:12:14;99019.78;;;21.17;41.29
35716;BME280;21840;44.920;8.616;2023-03-14T14:18:00;99016.47;;;20.98;41.82
35716;BME280;21840;44.920;8.616;2023-03-14T14:20:36;99012.56;;;20.77;42.26